Terminal Aerodrome Forecast
Issued by NWS Duluth, MN

Home | Current Version | Previous Version | Text Only | Print | Product List | Glossary On
Versions: 1 2 3 4 5 6 7 8 9 10 11 12 13 14 15 16 17 18 19 20 21 22 23 24 25 26 27 28 29 30 31 32 33 34
000
FTUS43 KDLH 291800 AAA
TAFDLH
TAF AMD
KDLH 291847Z 2919/3018 12006KT 4SM BR VCSH OVC004
      TEMPO 2922/3001 3SM TSRA BR OVC007CB
     FM300200 VRB03KT 1SM BR OVC004
     FM301500 04008KT P6SM BKN010=

USA.gov is the U.S. government's official web portal to all federal, state and local government web resources and services.